首页
METAR-TAF:

METAR-TAF

机场 :

Avord, 法国

纬度: 47-03-12N, 经度: 002-37-57E, 海拔: 177米

当前天气观测

该预报发布于37分钟前的21:30 UTC
风速8节,风向西南
温度 12°C
湿度 82%
气压 1015 hPa
能见度10公里或以上
1500米以下无云,无积雨云

METAR: LFOA 152130Z AUTO 22008KT CAVOK 12/09 Q1015 NOSIG

时间: 00:07 (22:07 UTC)

预报

该预报发布于2小时和7分钟前的20:00 UTC
预报有效从15日的 21点(UTC)到 16日的 21点(UTC)
风速10节,风向南转西南
能见度10公里或以上
1500米以下无云,无积雨云
短暂存在
从 16日的 11点(UTC)到 16日的 14点(UTC)
风速15节,风向南转西南,有时为25节阵风
短暂存在
从 16日的 14点(UTC)到 16日的 21点(UTC)
能見度: 4000

TAF: LFOA 152000Z 1521/1621 21010KT CAVOK TEMPO 1611/1614 20015G25KT TEMPO 1614/1621 4000 RA

超过4000个机场的气象观测和天气预报(METAR&TAF报告)。

可查询的气象台以黄色和红色小点在地图上表示。

将鼠标移到小点上方,可查看气象台名称。

然后点击查看天气观测和预报。

如需切换地图:点击带黑十字的绿色按钮放大地图;点击带横线的绿色按钮缩小地图;或者点击绿色箭头查看邻近地区的地图。


METAR-TAF: